createdAt,value
2022-10-04T00:00:17.574Z,555.20
2022-10-04T00:01:17.886Z,440.30
2022-10-04T00:02:17.590Z,393.80
2022-10-04T00:03:17.577Z,236.80
2022-10-04T00:04:17.557Z,230.40
2022-10-04T00:05:17.446Z,564.00
2022-10-04T00:06:17.435Z,524.30
2022-10-04T00:07:17.483Z,377.00
2022-10-04T00:08:17.432Z,568.50
2022-10-04T00:09:17.480Z,303.70
2022-10-04T00:10:17.445Z,661.10
2022-10-04T00:11:17.419Z,309.60
2022-10-04T00:12:17.458Z,323.00
2022-10-04T00:13:17.444Z,408.80
2022-10-04T00:14:17.455Z,544.30
2022-10-04T00:15:17.420Z,415.30
2022-10-04T00:16:17.465Z,412.60
2022-10-04T00:17:17.355Z,426.30
2022-10-04T00:18:17.556Z,197.90
2022-10-04T00:19:18.067Z,480.10
2022-10-04T00:20:17.402Z,452.30
2022-10-04T00:21:17.414Z,358.60
2022-10-04T00:22:17.646Z,306.90
2022-10-04T00:23:17.404Z,459.00
2022-10-04T00:24:19.167Z,305.50
2022-10-04T00:25:18.337Z,356.50
2022-10-04T00:26:17.643Z,421.50
2022-10-04T00:27:17.242Z,310.30
2022-10-04T00:28:17.361Z,321.50
2022-10-04T00:29:17.297Z,377.60
2022-10-04T00:30:17.800Z,216.60
2022-10-04T00:31:17.341Z,230.90
2022-10-04T00:32:17.346Z,128.50
2022-10-04T00:33:17.250Z,190.20
2022-10-04T00:34:17.880Z,216.60
2022-10-04T00:35:17.218Z,184.80
2022-10-04T00:36:17.208Z,255.50
2022-10-04T00:37:17.273Z,183.70
2022-10-04T00:38:17.254Z,247.00
2022-10-04T00:39:17.237Z,108.50
2022-10-04T00:40:17.214Z,519.30
2022-10-04T00:41:17.891Z,436.00
2022-10-04T00:42:17.243Z,328.40
2022-10-04T00:43:17.219Z,297.70
2022-10-04T00:44:17.111Z,278.80
2022-10-04T00:45:17.179Z,530.60
2022-10-04T00:46:17.220Z,643.90
2022-10-04T00:47:17.088Z,488.40
2022-10-04T00:48:17.170Z,777.80
2022-10-04T00:49:17.721Z,548.30
2022-10-04T00:50:17.132Z,237.00
2022-10-04T00:51:17.749Z,204.20
2022-10-04T00:52:17.140Z,587.50
2022-10-04T00:53:17.091Z,660.20
2022-10-04T00:54:17.820Z,273.30
2022-10-04T00:55:18.064Z,137.10
2022-10-04T00:56:17.038Z,387.30
2022-10-04T00:57:17.117Z,320.70
2022-10-04T00:58:17.125Z,278.00
2022-10-04T00:59:17.061Z,260.50
2022-10-04T01:00:17.039Z,229.40
2022-10-04T01:01:17.120Z,326.30
2022-10-04T01:02:17.109Z,534.70
2022-10-04T01:03:17.578Z,242.80
2022-10-04T01:04:17.085Z,132.30
2022-10-04T01:05:17.018Z,135.80
2022-10-04T01:06:17.026Z,183.10
2022-10-04T01:07:17.018Z,163.40
2022-10-04T01:08:17.855Z,183.70
2022-10-04T01:09:17.025Z,118.70
2022-10-04T01:10:16.943Z,274.70
2022-10-04T01:11:16.948Z,383.70
2022-10-04T01:12:16.871Z,265.50
2022-10-04T01:13:16.929Z,302.20
2022-10-04T01:14:16.943Z,286.90
2022-10-04T01:15:17.030Z,352.80
2022-10-04T01:16:17.018Z,338.10
2022-10-04T01:17:16.900Z,271.80
2022-10-04T01:18:16.933Z,245.60
2022-10-04T01:19:16.937Z,160.00
2022-10-04T01:20:16.880Z,228.70
2022-10-04T01:21:16.894Z,178.20
2022-10-04T01:22:16.942Z,243.40
2022-10-04T01:23:17.825Z,289.80
2022-10-04T01:24:16.857Z,373.60
2022-10-04T01:25:16.863Z,381.40
2022-10-04T01:26:17.806Z,332.70
2022-10-04T01:27:16.778Z,180.60
2022-10-04T01:28:16.897Z,266.70
2022-10-04T01:29:16.838Z,233.90
2022-10-04T01:30:16.805Z,259.70
2022-10-04T01:31:16.856Z,301.40
2022-10-04T01:32:16.836Z,309.30
2022-10-04T01:33:16.805Z,199.70
2022-10-04T01:34:16.748Z,148.50
2022-10-04T01:35:16.977Z,301.90
2022-10-04T01:36:16.775Z,135.90
2022-10-04T01:37:16.791Z,227.50
2022-10-04T01:38:16.715Z,188.50
2022-10-04T01:39:16.754Z,308.00
2022-10-04T01:40:16.731Z,392.20
2022-10-04T01:41:16.716Z,258.30
2022-10-04T01:42:16.770Z,288.50
2022-10-04T01:43:16.712Z,285.40
2022-10-04T01:44:16.704Z,260.40
2022-10-04T02:03:21.809Z,316.00
2022-10-04T02:07:35.746Z,176.90
2022-10-04T02:17:36.083Z,252.90
2022-10-04T02:18:37.158Z,144.70
2022-10-04T02:22:22.542Z,97.80
2022-10-04T02:23:03.965Z,92.00
2022-10-04T02:24:41.099Z,103.90
2022-10-04T02:25:05.602Z,109.30
2022-10-04T02:26:07.077Z,111.10
2022-10-04T02:27:06.825Z,102.20
2022-10-04T02:28:05.633Z,178.90
2022-10-04T02:29:05.047Z,170.90
2022-10-04T02:30:06.606Z,172.30
2022-10-04T02:31:05.677Z,118.20
2022-10-04T02:32:05.021Z,164.00
2022-10-04T02:33:04.989Z,181.90
2022-10-04T02:34:04.962Z,169.80
2022-10-04T02:35:05.014Z,90.30
2022-10-04T02:36:05.003Z,118.10
2022-10-04T02:37:05.063Z,127.20
2022-10-04T02:38:05.582Z,125.20
2022-10-04T02:39:05.582Z,249.50
2022-10-04T02:40:04.963Z,211.90
2022-10-04T02:41:04.962Z,144.30
2022-10-04T02:42:04.950Z,232.70
2022-10-04T02:43:05.655Z,289.80
2022-10-04T02:44:04.872Z,266.60
2022-10-04T02:45:05.595Z,367.40
2022-10-04T02:46:05.030Z,324.40
2022-10-04T02:47:05.579Z,131.40
2022-10-04T02:48:05.608Z,162.20
2022-10-04T02:49:05.678Z,175.90
2022-10-04T02:50:06.889Z,184.50
2022-10-04T02:51:05.905Z,275.60
2022-10-04T02:52:04.836Z,444.10
2022-10-04T02:53:05.580Z,419.70
2022-10-04T02:54:04.917Z,322.10
2022-10-04T02:55:05.661Z,506.00
2022-10-04T02:56:04.852Z,288.30
2022-10-04T02:57:05.591Z,424.00
2022-10-04T02:58:05.361Z,457.10
2022-10-04T02:59:06.583Z,313.20
2022-10-04T03:00:06.097Z,307.70
2022-10-04T03:01:09.235Z,455.70
2022-10-04T03:02:12.115Z,197.20
2022-10-04T03:03:12.688Z,180.30
2022-10-04T03:04:13.091Z,193.10
2022-10-04T03:05:48.086Z,277.70
2022-10-04T03:06:37.162Z,194.80
2022-10-04T03:07:20.089Z,470.90
2022-10-04T03:08:23.607Z,421.10
2022-10-04T03:09:30.315Z,507.70
2022-10-04T03:10:27.637Z,448.10
2022-10-04T03:11:05.588Z,551.70
2022-10-04T03:12:05.585Z,535.00
2022-10-04T03:13:05.344Z,351.80
2022-10-04T03:14:05.584Z,498.80
2022-10-04T03:15:05.610Z,142.20
2022-10-04T03:16:05.629Z,346.00
2022-10-04T03:17:05.315Z,158.30
2022-10-04T03:18:06.085Z,382.90
2022-10-04T03:19:04.711Z,96.00
2022-10-04T03:20:04.663Z,158.30
2022-10-04T03:21:04.632Z,456.10
2022-10-04T03:22:05.320Z,606.30
2022-10-04T03:23:04.635Z,248.70
2022-10-04T03:24:05.587Z,110.20
2022-10-04T03:25:04.608Z,138.20
2022-10-04T03:26:04.634Z,164.70
2022-10-04T03:27:06.298Z,291.70
2022-10-04T03:28:04.630Z,277.30
2022-10-04T03:29:04.574Z,218.20
2022-10-04T03:30:05.599Z,387.60
2022-10-04T03:31:04.699Z,440.60
2022-10-04T03:32:05.211Z,153.00
2022-10-04T03:33:04.556Z,468.20
2022-10-04T03:34:04.531Z,405.30
2022-10-04T03:35:04.504Z,488.30
2022-10-04T03:36:04.522Z,377.30
2022-10-04T03:37:04.576Z,200.70
2022-10-04T03:38:05.087Z,389.70
2022-10-04T03:39:04.515Z,482.10
2022-10-04T03:40:04.481Z,454.90
2022-10-04T03:41:05.163Z,518.30
2022-10-04T03:42:05.182Z,248.10
2022-10-04T03:43:06.096Z,402.10
2022-10-04T03:44:05.231Z,229.80
2022-10-04T03:45:06.089Z,108.00
2022-10-04T03:46:05.133Z,224.40
2022-10-04T03:47:04.399Z,148.30
2022-10-04T04:02:45.945Z,287.70
2022-10-04T04:03:43.540Z,301.90
2022-10-04T04:04:44.541Z,311.70
2022-10-04T04:05:43.876Z,120.30
2022-10-04T04:06:43.932Z,163.30
2022-10-04T04:07:44.539Z,102.60
2022-10-04T04:08:43.934Z,177.90
2022-10-04T04:09:44.533Z,163.70
2022-10-04T04:10:44.820Z,121.70
2022-10-04T04:11:45.528Z,113.20
2022-10-04T04:12:44.540Z,122.70
2022-10-04T04:13:43.825Z,139.40
2022-10-04T04:14:43.875Z,121.20
2022-10-04T04:15:43.853Z,108.50
2022-10-04T04:16:44.690Z,116.70
2022-10-04T04:17:44.865Z,94.70
2022-10-04T04:18:44.529Z,64.10
2022-10-04T04:19:44.533Z,81.20
2022-10-04T04:20:44.533Z,83.00
2022-10-04T04:21:43.954Z,71.50
2022-10-04T04:22:43.828Z,135.50
2022-10-04T04:23:44.535Z,65.80
2022-10-04T04:24:44.807Z,103.60
2022-10-04T04:25:43.821Z,76.70
2022-10-04T04:26:44.534Z,105.60
2022-10-04T04:27:44.763Z,98.20
2022-10-04T04:28:43.820Z,74.60
2022-10-04T04:29:45.542Z,132.50
2022-10-04T04:30:43.839Z,120.90
2022-10-04T04:31:44.097Z,138.20
2022-10-04T04:32:44.553Z,126.20
2022-10-04T04:33:43.679Z,84.70
2022-10-04T04:34:43.743Z,123.30
2022-10-04T04:35:44.532Z,71.60
2022-10-04T04:36:43.735Z,68.20
2022-10-04T04:37:43.729Z,67.70
2022-10-04T04:38:43.726Z,137.50
2022-10-04T04:39:44.607Z,83.20
2022-10-04T04:40:44.545Z,149.90
2022-10-04T04:41:49.567Z,145.00
2022-10-04T04:42:46.539Z,115.90
2022-10-04T04:43:44.537Z,124.00
2022-10-04T04:44:45.044Z,99.50
2022-10-04T04:45:44.588Z,75.30
2022-10-04T04:46:45.591Z,47.60
2022-10-04T04:47:43.676Z,36.20
2022-10-04T04:48:44.536Z,96.40
2022-10-04T04:49:44.551Z,45.60
2022-10-04T04:50:43.625Z,69.30
2022-10-04T04:51:43.846Z,38.00
2022-10-04T04:52:45.036Z,172.70
2022-10-04T04:53:43.606Z,86.70
2022-10-04T04:54:44.398Z,56.50
2022-10-04T04:56:03.388Z,73.50
2022-10-04T04:56:45.614Z,40.30
2022-10-04T04:57:43.700Z,64.90
2022-10-04T04:58:45.048Z,41.80
2022-10-04T04:59:44.287Z,40.20
2022-10-04T05:00:43.617Z,34.30
2022-10-04T05:01:44.870Z,40.70
2022-10-04T05:02:43.565Z,43.20
2022-10-04T05:03:43.546Z,44.30
2022-10-04T05:04:44.237Z,26.20
2022-10-04T05:05:45.058Z,29.40
2022-10-04T05:06:43.555Z,38.80
2022-10-04T05:07:43.500Z,52.80
2022-10-04T05:08:44.037Z,88.70
2022-10-04T05:09:43.487Z,74.40
2022-10-04T05:10:44.046Z,56.10
2022-10-04T05:11:43.685Z,43.20
2022-10-04T05:12:44.539Z,58.90
2022-10-04T05:13:43.457Z,100.00
2022-10-04T05:14:44.042Z,85.60
2022-10-04T05:15:43.393Z,87.30
2022-10-04T05:16:43.533Z,57.20
2022-10-04T05:17:46.049Z,85.00
2022-10-04T05:18:43.355Z,82.40
2022-10-04T05:19:44.066Z,91.40
2022-10-04T05:20:44.038Z,73.40
2022-10-04T05:21:44.464Z,53.90
2022-10-04T05:22:45.539Z,103.20
2022-10-04T05:23:45.039Z,238.30
2022-10-04T05:24:44.564Z,70.40
2022-10-04T05:25:45.042Z,71.50
2022-10-04T05:26:46.050Z,94.90
2022-10-04T05:27:45.045Z,85.30
2022-10-04T05:28:43.335Z,250.50
2022-10-04T05:29:44.304Z,119.40
2022-10-04T05:30:45.043Z,103.00
2022-10-04T05:31:44.387Z,42.10
2022-10-04T05:32:44.073Z,47.20
2022-10-04T05:33:43.245Z,72.10
2022-10-04T05:34:44.065Z,98.30
2022-10-04T05:35:43.207Z,117.20
2022-10-04T05:36:43.251Z,179.70
2022-10-04T05:37:43.188Z,61.90
2022-10-04T05:38:44.042Z,103.20
2022-10-04T05:39:44.042Z,83.10
2022-10-04T05:40:44.232Z,161.50
2022-10-04T05:41:43.438Z,150.80
2022-10-04T05:42:44.044Z,137.80
2022-10-04T05:43:43.248Z,142.70
2022-10-04T05:44:44.544Z,135.40
2022-10-04T05:45:44.080Z,142.40
2022-10-04T05:46:44.150Z,166.00
2022-10-04T05:47:44.184Z,104.00
2022-10-04T05:48:43.194Z,64.00
2022-10-04T05:49:43.803Z,40.30
2022-10-04T05:50:44.089Z,87.00
2022-10-04T05:51:43.311Z,66.90
2022-10-04T05:52:43.084Z,39.90
2022-10-04T05:53:43.118Z,83.10
2022-10-04T05:54:44.047Z,50.10
2022-10-04T05:55:44.045Z,49.50
2022-10-04T05:56:44.546Z,114.80
2022-10-04T05:57:43.039Z,46.00
2022-10-04T05:58:43.067Z,77.70
2022-10-04T05:59:43.058Z,58.80
2022-10-04T06:00:43.205Z,37.40
2022-10-04T06:01:44.111Z,33.90
2022-10-04T06:02:44.101Z,32.20
2022-10-04T06:03:43.027Z,57.30
2022-10-04T06:04:43.035Z,66.10
2022-10-04T06:05:43.074Z,48.70
2022-10-04T06:06:43.550Z,58.20
2022-10-04T06:07:44.257Z,48.90
2022-10-04T06:08:43.548Z,40.90
2022-10-04T06:09:43.080Z,73.90
2022-10-04T06:11:12.198Z,60.60
2022-10-04T06:11:43.294Z,45.10
2022-10-04T06:12:44.769Z,79.00
2022-10-04T06:13:43.887Z,46.20
2022-10-04T06:14:43.583Z,44.60
2022-10-04T06:15:43.596Z,36.50
2022-10-04T06:16:43.647Z,48.50
2022-10-04T06:17:43.006Z,38.50
2022-10-04T06:18:42.956Z,32.00
2022-10-04T06:19:42.904Z,33.70
2022-10-04T06:20:42.894Z,25.00
2022-10-04T06:21:44.154Z,22.10
2022-10-04T06:22:43.029Z,31.00
2022-10-04T06:23:43.592Z,34.30
2022-10-04T06:24:43.591Z,31.30
2022-10-04T06:25:42.857Z,50.20
2022-10-04T06:26:45.584Z,40.20
2022-10-04T06:27:42.873Z,29.40
2022-10-04T06:28:42.856Z,41.60
2022-10-04T06:29:42.832Z,40.30
2022-10-04T06:30:42.863Z,102.40
2022-10-04T06:31:43.095Z,96.30
2022-10-04T06:32:43.853Z,78.20
2022-10-04T06:33:42.889Z,85.80
2022-10-04T06:34:42.818Z,40.70
2022-10-04T06:35:42.788Z,65.90
2022-10-04T06:36:42.763Z,91.10
2022-10-04T06:37:43.592Z,50.80
2022-10-04T06:38:42.792Z,26.80
2022-10-04T06:39:43.594Z,57.40
2022-10-04T06:40:42.805Z,32.00
2022-10-04T06:41:43.823Z,39.00
2022-10-04T06:42:43.589Z,53.30
2022-10-04T06:43:43.590Z,71.10
2022-10-04T06:44:46.283Z,41.00
2022-10-04T06:45:43.829Z,28.10
2022-10-04T06:46:42.739Z,36.00
2022-10-04T06:47:42.744Z,46.90
2022-10-04T06:48:44.088Z,43.90
2022-10-04T06:49:43.593Z,64.30
2022-10-04T06:50:43.598Z,36.60
2022-10-04T06:51:43.953Z,36.40
2022-10-04T06:52:44.124Z,49.90
2022-10-04T06:53:43.319Z,110.70
2022-10-04T06:54:42.787Z,47.60
2022-10-04T06:55:43.269Z,94.50
2022-10-04T06:56:42.685Z,88.20
2022-10-04T06:57:42.689Z,51.10
2022-10-04T06:58:42.694Z,65.70
2022-10-04T06:59:42.652Z,117.40
2022-10-04T07:00:42.663Z,65.00
2022-10-04T07:01:43.106Z,51.50
2022-10-04T07:02:42.668Z,79.90
2022-10-04T07:03:42.571Z,90.30
2022-10-04T07:05:06.942Z,119.70
2022-10-04T07:05:44.634Z,52.70
2022-10-04T07:06:42.599Z,112.30
2022-10-04T07:07:42.670Z,38.70
2022-10-04T07:08:43.094Z,21.10
2022-10-04T07:09:43.092Z,63.20
2022-10-04T07:10:42.524Z,35.70
2022-10-04T07:11:42.808Z,54.20
2022-10-04T07:12:43.093Z,60.60
2022-10-04T07:13:43.173Z,33.90
2022-10-04T07:14:42.475Z,25.90
2022-10-04T07:15:42.611Z,38.90
2022-10-04T07:16:44.096Z,42.70
2022-10-04T07:17:42.510Z,28.60
2022-10-04T07:18:42.485Z,15.60
2022-10-04T07:19:42.445Z,17.20
2022-10-04T07:20:42.456Z,49.90
2022-10-04T07:21:43.827Z,12.10
2022-10-04T07:22:42.441Z,12.90
2022-10-04T07:23:43.102Z,16.60
2022-10-04T07:24:43.324Z,11.20
2022-10-04T07:25:42.454Z,10.60
2022-10-04T07:26:42.414Z,13.80
2022-10-04T07:27:42.420Z,11.80
2022-10-04T07:28:42.390Z,12.90
2022-10-04T07:29:43.369Z,12.00
2022-10-04T07:30:43.444Z,15.00
2022-10-04T07:31:43.349Z,33.80
2022-10-04T07:32:43.403Z,13.70
2022-10-04T07:33:43.375Z,12.30
2022-10-04T07:34:42.308Z,14.20
2022-10-04T07:35:43.346Z,13.20
2022-10-04T07:36:42.286Z,12.30
2022-10-04T07:37:43.099Z,23.10
2022-10-04T07:38:42.290Z,11.80
2022-10-04T07:39:42.321Z,11.90
2022-10-04T07:40:42.367Z,12.30
2022-10-04T07:41:42.554Z,13.70
2022-10-04T07:42:42.309Z,16.70
2022-10-04T07:43:42.283Z,19.80
2022-10-04T07:44:42.249Z,14.30
2022-10-04T07:45:42.348Z,16.20
2022-10-04T07:46:43.260Z,11.10
2022-10-04T07:47:42.863Z,11.10
2022-10-04T07:48:42.232Z,10.00
2022-10-04T07:49:42.193Z,8.10
2022-10-04T07:50:43.098Z,7.90
2022-10-04T07:51:43.057Z,7.90
2022-10-04T07:52:42.202Z,7.80
2022-10-04T07:53:42.215Z,8.20
2022-10-04T07:54:42.162Z,9.10
2022-10-04T07:55:42.306Z,9.40
2022-10-04T07:56:42.203Z,9.50
2022-10-04T07:57:42.181Z,8.40
2022-10-04T07:58:45.493Z,7.10
2022-10-04T07:59:44.110Z,7.90
2022-10-04T08:00:42.140Z,9.80
2022-10-04T08:01:42.560Z,8.80
2022-10-04T08:02:42.287Z,10.60
2022-10-04T08:03:42.147Z,9.70
2022-10-04T08:04:42.115Z,10.50
2022-10-04T08:05:42.136Z,9.80
2022-10-04T08:06:42.342Z,9.00
2022-10-04T08:07:42.603Z,8.20
2022-10-04T08:08:42.174Z,7.70
2022-10-04T08:09:42.084Z,7.30
2022-10-04T08:10:42.602Z,8.30
2022-10-04T08:11:42.832Z,6.80
2022-10-04T08:12:44.107Z,9.60
2022-10-04T08:13:42.058Z,8.60
2022-10-04T08:14:42.118Z,7.70
2022-10-04T08:15:43.067Z,7.50
2022-10-04T08:16:42.326Z,8.20
2022-10-04T08:17:41.951Z,8.30
2022-10-04T08:18:42.605Z,6.40
2022-10-04T08:19:42.840Z,10.30
2022-10-04T08:20:42.618Z,7.60
2022-10-04T08:21:42.015Z,7.00
2022-10-04T08:22:41.952Z,9.80
2022-10-04T08:24:16.212Z,7.40
2022-10-04T08:24:42.826Z,6.90
2022-10-04T08:25:41.917Z,6.20
2022-10-04T08:26:42.171Z,15.60
2022-10-04T08:27:41.882Z,8.10
2022-10-04T08:28:41.849Z,8.00
2022-10-04T08:29:41.854Z,7.80
2022-10-04T08:30:41.923Z,9.00
2022-10-04T08:31:41.884Z,6.70
2022-10-04T08:32:41.836Z,9.80
2022-10-04T08:33:41.864Z,5.60
2022-10-04T08:34:41.837Z,9.00
2022-10-04T08:35:41.859Z,6.60
2022-10-04T08:36:42.157Z,8.80
2022-10-04T08:37:41.830Z,8.00
2022-10-04T08:38:41.821Z,5.60
2022-10-04T08:39:41.786Z,8.40
2022-10-04T08:40:41.770Z,5.90
2022-10-04T08:41:41.798Z,6.00
2022-10-04T08:42:41.807Z,6.80
2022-10-04T08:43:41.764Z,6.90
2022-10-04T08:44:41.740Z,6.50
2022-10-04T08:45:41.728Z,6.30
2022-10-04T08:46:42.184Z,8.10
2022-10-04T08:47:41.769Z,6.50
2022-10-04T08:48:42.650Z,6.00
2022-10-04T08:49:41.730Z,6.30
2022-10-04T08:50:42.704Z,5.80
2022-10-04T08:51:41.736Z,7.70
2022-10-04T08:52:41.706Z,5.80
2022-10-04T08:53:41.699Z,6.20
2022-10-04T08:54:41.688Z,5.90
2022-10-04T08:55:41.671Z,6.20
2022-10-04T08:56:41.979Z,7.20
2022-10-04T08:57:41.662Z,7.70
2022-10-04T08:58:41.647Z,7.30
2022-10-04T08:59:41.655Z,6.00
2022-10-04T09:00:41.677Z,7.10
2022-10-04T09:01:41.708Z,6.30
2022-10-04T09:02:41.758Z,6.10
2022-10-04T09:03:41.632Z,6.60
2022-10-04T09:04:41.599Z,6.90
2022-10-04T09:05:42.291Z,7.70
2022-10-04T09:06:41.962Z,6.40
2022-10-04T09:07:41.594Z,7.80
2022-10-04T09:08:41.612Z,6.20
2022-10-04T09:09:41.585Z,6.90
2022-10-04T09:10:41.604Z,5.80
2022-10-04T09:11:41.639Z,6.00
2022-10-04T09:12:41.618Z,7.30
2022-10-04T09:13:41.548Z,5.00
2022-10-04T09:14:41.552Z,6.50
2022-10-04T09:15:41.573Z,11.80
2022-10-04T09:16:41.833Z,6.90
2022-10-04T09:17:41.550Z,4.70
2022-10-04T09:18:41.488Z,5.40
2022-10-04T09:19:41.500Z,8.60
2022-10-04T09:20:41.502Z,6.90
2022-10-04T09:21:41.496Z,6.60
2022-10-04T09:22:41.473Z,5.70
2022-10-04T09:23:41.489Z,7.10
2022-10-04T09:24:41.494Z,5.50
2022-10-04T09:25:41.504Z,5.70
2022-10-04T09:26:42.751Z,8.00
2022-10-04T09:27:56.041Z,8.40
2022-10-04T09:28:43.506Z,9.00
2022-10-04T09:29:41.431Z,5.40
2022-10-04T09:30:41.470Z,8.30
2022-10-04T09:31:41.445Z,5.50
2022-10-04T09:32:41.493Z,6.10
2022-10-04T09:33:41.425Z,8.10
2022-10-04T09:34:41.418Z,5.60
2022-10-04T09:35:41.532Z,8.00
2022-10-04T09:36:41.770Z,8.00
2022-10-04T09:37:41.352Z,6.10
2022-10-04T09:38:41.420Z,5.30
2022-10-04T09:39:41.406Z,5.00
2022-10-04T09:40:45.326Z,5.30
2022-10-04T09:41:43.343Z,4.80
2022-10-04T09:42:41.392Z,6.50
2022-10-04T09:43:41.348Z,7.20
2022-10-04T09:44:41.359Z,6.30
2022-10-04T09:45:41.347Z,7.50
2022-10-04T09:46:42.372Z,7.00
2022-10-04T09:47:41.369Z,7.50
2022-10-04T09:48:41.289Z,7.80
2022-10-04T09:49:41.289Z,10.50
2022-10-04T09:50:41.270Z,8.00
2022-10-04T09:51:41.302Z,7.90
2022-10-04T09:52:41.285Z,7.10
2022-10-04T09:53:41.277Z,9.00
2022-10-04T09:54:44.452Z,7.40
2022-10-04T09:55:42.290Z,8.00
2022-10-04T09:56:41.599Z,6.60
2022-10-04T09:57:47.680Z,10.00
2022-10-04T09:58:41.233Z,7.10
2022-10-04T09:59:41.211Z,6.10
2022-10-04T10:00:41.277Z,6.40
2022-10-04T10:01:41.246Z,8.90
2022-10-04T10:02:41.240Z,5.70
2022-10-04T10:03:41.905Z,9.00
2022-10-04T10:04:41.199Z,4.80
2022-10-04T10:05:42.172Z,6.50
2022-10-04T10:06:41.588Z,7.10
2022-10-04T10:07:41.242Z,7.20
2022-10-04T10:08:41.874Z,6.50
2022-10-04T10:09:41.216Z,5.60
2022-10-04T10:10:41.163Z,9.50
2022-10-04T10:11:41.413Z,4.90
2022-10-04T10:12:41.119Z,6.70
2022-10-04T10:13:41.137Z,4.70
2022-10-04T10:14:41.149Z,11.90
2022-10-04T10:15:41.202Z,7.10
2022-10-04T10:16:41.506Z,8.90
2022-10-04T10:17:41.675Z,6.10
2022-10-04T10:18:41.084Z,7.30
2022-10-04T10:19:41.090Z,6.80
2022-10-04T10:20:41.086Z,7.90
2022-10-04T10:21:41.336Z,7.00
2022-10-04T10:22:41.088Z,8.60
2022-10-04T10:23:41.035Z,6.40
2022-10-04T10:24:42.677Z,8.40
2022-10-04T10:25:41.023Z,7.00
2022-10-04T10:26:41.425Z,7.00
2022-10-04T10:27:41.678Z,6.30
2022-10-04T10:28:41.019Z,9.00
2022-10-04T10:29:41.922Z,6.50
2022-10-04T10:30:40.993Z,9.10
2022-10-04T10:31:43.557Z,7.00
2022-10-04T10:32:43.028Z,7.30
2022-10-04T10:33:40.982Z,9.00
2022-10-04T10:34:41.780Z,6.70
2022-10-04T10:35:40.974Z,8.50
2022-10-04T10:36:42.218Z,6.90
2022-10-04T10:37:41.913Z,6.40
2022-10-04T10:38:41.683Z,7.10
2022-10-04T10:39:41.682Z,8.60
2022-10-04T10:40:40.939Z,7.10
2022-10-04T10:41:40.984Z,5.10
2022-10-04T10:42:40.867Z,7.10
2022-10-04T10:43:41.684Z,8.40
2022-10-04T10:44:40.920Z,7.10
2022-10-04T10:45:40.977Z,7.60
2022-10-04T10:46:40.871Z,6.60
2022-10-04T10:47:41.848Z,8.90
2022-10-04T10:48:40.904Z,6.40
2022-10-04T10:49:40.892Z,8.30
2022-10-04T10:50:41.813Z,8.00
2022-10-04T10:51:40.848Z,10.90
2022-10-04T10:52:41.908Z,8.70
2022-10-04T10:53:43.696Z,6.90
2022-10-04T10:54:40.847Z,6.70
2022-10-04T10:55:41.757Z,7.70
2022-10-04T10:56:41.495Z,4.30
2022-10-04T10:57:41.299Z,7.00
2022-10-04T10:58:40.851Z,7.50
2022-10-04T10:59:41.691Z,5.10
2022-10-04T11:00:40.740Z,4.60
2022-10-04T11:01:40.880Z,6.80
2022-10-04T11:02:50.036Z,7.50
2022-10-04T11:03:42.899Z,7.00
2022-10-04T11:04:40.719Z,5.90
2022-10-04T11:05:41.698Z,6.10
2022-10-04T11:06:41.200Z,5.60
2022-10-04T11:07:40.744Z,7.40
2022-10-04T11:08:40.732Z,6.40
2022-10-04T11:09:40.723Z,6.50
2022-10-04T11:10:40.748Z,6.20
2022-10-04T11:11:40.720Z,6.90
2022-10-04T11:12:40.710Z,5.70
2022-10-04T11:13:40.680Z,9.40
2022-10-04T11:14:40.691Z,6.50
2022-10-04T11:15:40.786Z,9.40
2022-10-04T11:16:41.195Z,5.80
2022-10-04T11:17:40.658Z,6.40
2022-10-04T11:18:40.662Z,5.30
2022-10-04T11:19:40.648Z,8.30
2022-10-04T11:20:40.674Z,8.10
2022-10-04T11:21:40.633Z,10.30
2022-10-04T11:22:40.628Z,4.40
2022-10-04T11:23:40.648Z,6.00
2022-10-04T11:24:40.600Z,4.70
2022-10-04T11:25:40.564Z,5.60
2022-10-04T11:26:40.631Z,8.10
2022-10-04T11:27:40.618Z,4.80
2022-10-04T11:28:40.621Z,5.30
2022-10-04T11:29:40.564Z,6.80
2022-10-04T11:30:40.549Z,5.80
2022-10-04T11:31:40.627Z,7.30
2022-10-04T11:32:40.574Z,5.70
2022-10-04T11:33:40.526Z,7.30
2022-10-04T11:34:41.202Z,7.10
2022-10-04T11:35:40.508Z,5.40
2022-10-04T11:36:40.559Z,6.30
2022-10-04T11:37:40.532Z,5.90
2022-10-04T11:38:41.207Z,4.00
2022-10-04T11:39:44.391Z,7.90
2022-10-04T11:40:41.482Z,6.20
2022-10-04T11:41:40.493Z,8.10
2022-10-04T11:42:40.457Z,5.70
2022-10-04T11:43:40.445Z,5.70
2022-10-04T11:44:40.473Z,6.30
2022-10-04T11:45:40.489Z,5.40
2022-10-04T11:46:42.569Z,4.30
2022-10-04T11:47:40.441Z,9.00
2022-10-04T11:48:40.406Z,8.20
2022-10-04T11:49:41.210Z,6.30
2022-10-04T11:50:40.447Z,4.50
2022-10-04T11:51:40.408Z,6.20
2022-10-04T11:52:40.453Z,4.90
2022-10-04T11:53:40.341Z,4.40
2022-10-04T11:54:40.432Z,4.60
2022-10-04T11:55:40.383Z,4.60
2022-10-04T11:56:40.350Z,7.60
2022-10-04T11:57:40.321Z,5.40
2022-10-04T11:58:41.232Z,5.50
2022-10-04T11:59:41.211Z,4.50
2022-10-04T12:00:41.211Z,6.00
2022-10-04T12:01:41.211Z,8.00
2022-10-04T12:02:40.328Z,6.50
2022-10-04T12:03:40.327Z,4.50
2022-10-04T12:04:41.267Z,4.50
2022-10-04T12:05:40.257Z,4.70
2022-10-04T12:06:40.294Z,6.50
2022-10-04T12:07:40.292Z,4.50
2022-10-04T12:08:40.325Z,5.90
2022-10-04T12:09:40.349Z,5.10
2022-10-04T12:10:40.347Z,4.20
2022-10-04T12:11:40.230Z,7.00
2022-10-04T12:12:40.207Z,8.80
2022-10-04T12:13:40.725Z,5.80
2022-10-04T12:14:40.306Z,5.10
2022-10-04T12:15:40.229Z,4.00
2022-10-04T12:16:40.285Z,5.10
2022-10-04T12:17:40.211Z,5.40
2022-10-04T12:18:40.718Z,6.50
2022-10-04T12:19:40.245Z,5.50
2022-10-04T12:20:40.221Z,6.70
2022-10-04T12:21:40.967Z,6.60
2022-10-04T12:22:40.727Z,5.60
2022-10-04T12:23:40.242Z,5.10
2022-10-04T12:24:40.168Z,4.50
2022-10-04T12:25:40.150Z,4.10
2022-10-04T12:26:40.171Z,4.20
2022-10-04T12:27:40.200Z,4.20
2022-10-04T12:28:40.798Z,4.10
2022-10-04T12:29:41.108Z,4.80
2022-10-04T12:30:40.161Z,6.30
2022-10-04T12:31:40.758Z,5.40
2022-10-04T12:32:40.085Z,5.00
2022-10-04T12:33:40.064Z,5.20
2022-10-04T12:34:40.722Z,3.70
2022-10-04T12:35:40.104Z,5.40
2022-10-04T12:36:40.022Z,4.50
2022-10-04T12:37:40.134Z,4.90
2022-10-04T12:38:40.724Z,4.70
2022-10-04T12:39:40.726Z,6.10
2022-10-04T12:40:40.016Z,4.60
2022-10-04T12:41:40.746Z,3.90
2022-10-04T12:42:39.991Z,6.80
2022-10-04T12:43:41.730Z,6.70
2022-10-04T12:44:40.737Z,6.90
2022-10-04T12:45:40.052Z,3.30
2022-10-04T12:46:39.961Z,5.30
2022-10-04T12:47:39.975Z,4.90
2022-10-04T12:48:40.732Z,5.90
2022-10-04T12:49:39.986Z,5.30
2022-10-04T12:50:39.986Z,5.10
2022-10-04T12:51:39.965Z,5.40
2022-10-04T12:52:39.942Z,4.80
2022-10-04T12:53:40.097Z,5.60
2022-10-04T12:54:39.992Z,3.50
2022-10-04T12:55:39.883Z,4.50
2022-10-04T12:56:39.912Z,5.20
2022-10-04T12:57:40.949Z,4.40
2022-10-04T12:58:39.943Z,4.20
2022-10-04T12:59:39.935Z,5.90
2022-10-04T13:00:39.996Z,3.40
2022-10-04T13:01:40.000Z,3.10
2022-10-04T13:02:40.797Z,4.40
2022-10-04T13:03:39.810Z,6.80
2022-10-04T13:04:40.460Z,10.80
2022-10-04T13:05:40.849Z,6.30
2022-10-04T13:06:43.407Z,2.30
2022-10-04T13:07:40.773Z,5.50
2022-10-04T13:08:39.785Z,3.90
2022-10-04T13:09:39.778Z,5.70
2022-10-04T13:10:39.763Z,6.90
2022-10-04T13:11:39.780Z,6.40
2022-10-04T13:12:39.740Z,5.00
2022-10-04T13:13:39.791Z,4.50
2022-10-04T13:14:39.791Z,5.40
2022-10-04T13:17:41.721Z,3.70
2022-10-04T13:18:39.731Z,5.40
2022-10-04T13:19:40.347Z,4.80
2022-10-04T13:20:40.478Z,5.40
2022-10-04T13:21:39.678Z,3.10
2022-10-04T13:23:02.827Z,5.00
2022-10-04T13:24:07.276Z,4.80
2022-10-04T13:24:40.263Z,6.10
2022-10-04T13:26:13.856Z,7.00
2022-10-04T13:26:40.292Z,3.00
2022-10-04T13:28:14.862Z,4.70
2022-10-04T13:28:39.622Z,4.10
2022-10-04T13:29:39.580Z,6.00
2022-10-04T13:30:39.589Z,4.00
2022-10-04T13:31:39.674Z,6.00
2022-10-04T13:32:39.577Z,5.70
2022-10-04T13:33:39.592Z,3.30
2022-10-04T13:34:40.602Z,7.70
2022-10-04T13:35:39.603Z,7.00
2022-10-04T13:36:39.655Z,4.60
2022-10-04T13:37:39.566Z,6.90
2022-10-04T13:38:39.560Z,5.20
2022-10-04T13:39:39.576Z,3.50
2022-10-04T13:40:39.529Z,5.20
2022-10-04T13:41:39.532Z,3.60
2022-10-04T13:42:39.534Z,5.70
2022-10-04T13:43:39.533Z,4.10
2022-10-04T13:44:39.502Z,3.40